Time;durP1;ratioP1;P1;durP2;ratioP2;P2;SDS_P1;SDS_P2;PMS_P1;PMS_P2;Temp;Humidity;BMP_temperature;BMP_pressure;BME280_temperature;BME280_humidity;BME280_pressure;Samples;Min_cycle;Max_cycle;Signal;HPM_P1;HPM_P2
2021/07/10 00:01:51;;;;;;;0.60;0.60;;;23.60;60.10;;;;;;5032095;28;20029;-28
2021/07/10 00:04:17;;;;;;;1.20;0.65;;;23.50;60.30;;;;;;5068085;28;20081;-30
2021/07/10 00:06:43;;;;;;;0.70;0.70;;;23.50;60.40;;;;;;5066585;28;20021;-33
2021/07/10 00:09:08;;;;;;;0.68;0.60;;;23.50;60.50;;;;;;5051557;28;20516;-31
2021/07/10 00:11:34;;;;;;;0.50;0.50;;;23.50;60.50;;;;;;5067267;28;20618;-28
2021/07/10 00:13:59;;;;;;;1.20;0.50;;;23.60;60.30;;;;;;5065433;28;20041;-30
2021/07/10 00:16:25;;;;;;;0.50;0.50;;;23.70;59.90;;;;;;5063905;28;20028;-33
2021/07/10 00:18:50;;;;;;;0.65;0.60;;;23.70;60.20;;;;;;5062787;28;20036;-30
2021/07/10 00:21:16;;;;;;;0.45;0.45;;;23.60;60.10;;;;;;5063909;28;20565;-28
2021/07/10 00:23:41;;;;;;;0.60;0.60;;;23.60;60.50;;;;;;5071230;28;20033;-29
2021/07/10 00:26:07;;;;;;;0.77;0.50;;;23.60;60.50;;;;;;5065085;28;20103;-31
2021/07/10 00:28:33;;;;;;;0.50;0.50;;;23.50;60.70;;;;;;5066350;28;20082;-31
2021/07/10 00:30:58;;;;;;;0.40;0.40;;;23.50;60.70;;;;;;5066798;28;20027;-31
2021/07/10 00:33:24;;;;;;;0.50;0.50;;;23.50;60.60;;;;;;5067710;28;20417;-31
2021/07/10 00:35:49;;;;;;;0.40;0.40;;;23.50;60.90;;;;;;5066022;28;20036;-30
2021/07/10 00:38:15;;;;;;;0.43;0.43;;;23.40;60.90;;;;;;5063745;28;20032;-34
2021/07/10 00:40:41;;;;;;;0.60;0.60;;;23.50;60.70;;;;;;5063140;28;20036;-27
2021/07/10 00:43:06;;;;;;;0.60;0.60;;;23.60;60.50;;;;;;5069171;28;20025;-27
2021/07/10 00:45:32;;;;;;;0.40;0.40;;;23.50;60.60;;;;;;5072482;28;20106;-28
2021/07/10 00:47:57;;;;;;;0.57;0.57;;;23.60;60.50;;;;;;5067241;28;20370;-30
2021/07/10 00:50:24;;;;;;;0.60;0.60;;;23.40;60.80;;;;;;5064484;28;20104;-27
2021/07/10 00:52:50;;;;;;;0.50;0.50;;;23.40;60.90;;;;;;5065707;28;20056;-31
2021/07/10 00:55:16;;;;;;;0.50;0.50;;;23.50;61.00;;;;;;5057623;28;20090;-30
2021/07/10 00:57:42;;;;;;;0.57;0.57;;;23.50;60.90;;;;;;5043346;28;20055;-28
2021/07/10 01:00:09;;;;;;;0.50;0.50;;;23.50;60.80;;;;;;5047850;28;20056;-33
2021/07/10 01:02:35;;;;;;;1.20;0.63;;;23.50;60.60;;;;;;5061111;28;20032;-29
2021/07/10 01:05:04;;;;;;;0.70;0.70;;;23.50;60.80;;;;;;5059871;28;20036;-31
2021/07/10 01:07:30;;;;;;;0.50;0.50;;;23.50;60.70;;;;;;5060786;28;20079;-29
2021/07/10 01:09:55;;;;;;;0.52;0.52;;;23.60;60.20;;;;;;5065535;28;20455;-34
2021/07/10 01:12:21;;;;;;;0.50;0.50;;;23.60;60.60;;;;;;5063765;28;20067;-30
2021/07/10 01:14:46;;;;;;;0.60;0.60;;;23.60;60.60;;;;;;5047045;28;20090;-29
2021/07/10 01:17:12;;;;;;;0.55;0.55;;;23.60;60.40;;;;;;5026528;28;20402;-27
2021/07/10 01:19:38;;;;;;;0.60;0.60;;;23.70;60.30;;;;;;5061429;28;20031;-30
2021/07/10 01:22:09;;;;;;;0.63;0.57;;;23.50;60.60;;;;;;5065252;28;20050;-29
2021/07/10 01:24:35;;;;;;;0.75;0.70;;;23.60;60.50;;;;;;5048455;28;20029;-29
2021/07/10 01:27:00;;;;;;;0.82;0.55;;;23.60;60.50;;;;;;5066519;28;20859;-27
2021/07/10 01:29:26;;;;;;;1.20;0.60;;;23.60;60.50;;;;;;5068690;28;20028;-28
2021/07/10 01:31:53;;;;;;;0.60;0.60;;;23.60;60.60;;;;;;5044732;28;20054;-26
2021/07/10 01:34:19;;;;;;;0.80;0.80;;;23.60;60.50;;;;;;5064916;28;20455;-29
2021/07/10 01:36:44;;;;;;;0.50;0.50;;;23.50;60.80;;;;;;5065110;28;20025;-28
2021/07/10 01:39:10;;;;;;;0.50;0.50;;;23.60;60.60;;;;;;5053297;28;20020;-30
2021/07/10 01:41:46;;;;;;;0.55;0.55;;;23.60;60.50;;;;;;5069255;28;20751;-31
2021/07/10 01:44:11;;;;;;;0.70;0.70;;;23.60;60.40;;;;;;5060420;28;20481;-27
2021/07/10 01:46:37;;;;;;;2.15;0.50;;;23.60;60.50;;;;;;5065479;28;20033;-28
2021/07/10 01:49:03;;;;;;;0.50;0.50;;;23.60;60.60;;;;;;5063646;28;20029;-30
2021/07/10 01:51:28;;;;;;;0.40;0.40;;;23.60;60.30;;;;;;5065363;28;20032;-33
2021/07/10 01:53:54;;;;;;;0.55;0.50;;;23.60;60.50;;;;;;5062133;28;20667;-37
2021/07/10 01:56:19;;;;;;;0.60;0.60;;;23.60;60.50;;;;;;5068013;28;20036;-33
2021/07/10 01:58:45;;;;;;;0.50;0.50;;;23.60;60.40;;;;;;5062331;28;20025;-28
2021/07/10 02:01:11;;;;;;;0.52;0.52;;;23.60;60.40;;;;;;5062938;28;21028;-28
2021/07/10 02:03:36;;;;;;;0.40;0.40;;;23.60;60.60;;;;;;5064261;28;20081;-27
2021/07/10 02:06:03;;;;;;;0.40;0.40;;;23.60;60.40;;;;;;5070690;28;20070;-33
2021/07/10 02:08:28;;;;;;;0.52;0.40;;;23.60;61.30;;;;;;5045534;28;20043;-29
2021/07/10 02:10:54;;;;;;;0.50;0.50;;;23.50;60.60;;;;;;5065234;28;20049;-29
2021/07/10 02:13:19;;;;;;;0.30;0.30;;;23.60;60.60;;;;;;5060551;28;20501;-29
2021/07/10 02:15:45;;;;;;;0.85;0.60;;;23.60;60.30;;;;;;5064530;28;20032;-29
2021/07/10 02:18:10;;;;;;;0.50;0.50;;;23.60;60.40;;;;;;5061973;28;20040;-30
2021/07/10 02:20:37;;;;;;;0.60;0.60;;;23.50;60.60;;;;;;5064535;28;20025;-29
2021/07/10 02:23:02;;;;;;;0.50;0.50;;;23.60;60.40;;;;;;5061938;28;20029;-30
2021/07/10 02:25:28;;;;;;;0.50;0.50;;;23.50;60.50;;;;;;5060438;28;20016;-30
2021/07/10 02:27:54;;;;;;;0.70;0.70;;;23.60;60.50;;;;;;5060920;28;20028;-27
2021/07/10 02:30:22;;;;;;;0.60;0.60;;;23.50;60.70;;;;;;5063603;28;20029;-26
2021/07/10 02:32:47;;;;;;;0.40;0.40;;;23.50;60.70;;;;;;5044350;28;20036;-27
2021/07/10 02:35:13;;;;;;;0.50;0.50;;;23.40;61.00;;;;;;5065858;28;20039;-31
2021/07/10 02:37:39;;;;;;;0.50;0.50;;;23.50;60.70;;;;;;5059949;28;20040;-32
2021/07/10 02:40:06;;;;;;;0.65;0.65;;;23.40;61.10;;;;;;5062219;28;20029;-31
2021/07/10 02:42:32;;;;;;;0.60;0.60;;;23.30;61.30;;;;;;5061942;28;20116;-32
2021/07/10 02:44:58;;;;;;;0.50;0.50;;;23.30;61.30;;;;;;5064760;28;20092;-30
2021/07/10 02:47:24;;;;;;;0.50;0.50;;;23.40;61.10;;;;;;5057035;28;20088;-27
2021/07/10 02:49:50;;;;;;;0.50;0.50;;;23.50;61.00;;;;;;5059402;28;20021;-29
2021/07/10 02:52:16;;;;;;;0.50;0.50;;;23.40;61.20;;;;;;5061475;28;20033;-33
2021/07/10 02:54:41;;;;;;;0.60;0.60;;;23.40;61.10;;;;;;5061664;28;20151;-27
2021/07/10 02:57:07;;;;;;;0.60;0.50;;;23.40;61.10;;;;;;5060955;28;20422;-36
2021/07/10 02:59:33;;;;;;;0.82;0.65;;;23.30;61.20;;;;;;5058255;28;20089;-27
2021/07/10 03:01:59;;;;;;;0.40;0.40;;;23.40;61.20;;;;;;5042817;28;20398;-28
2021/07/10 03:04:24;;;;;;;0.40;0.40;;;23.40;61.50;;;;;;5071087;28;20032;-29
2021/07/10 03:06:50;;;;;;;0.30;0.30;;;23.40;61.30;;;;;;5067136;28;20601;-29
2021/07/10 03:09:15;;;;;;;0.50;0.50;;;23.40;61.10;;;;;;5064178;28;20021;-31
2021/07/10 03:11:42;;;;;;;0.50;0.50;;;23.40;61.00;;;;;;5052367;28;20097;-36
2021/07/10 03:14:07;;;;;;;0.60;0.60;;;23.40;61.10;;;;;;5067100;28;20834;-27
2021/07/10 03:16:33;;;;;;;0.50;0.50;;;23.40;61.40;;;;;;5070785;28;20040;-31
2021/07/10 03:18:58;;;;;;;0.40;0.40;;;23.30;61.30;;;;;;5066513;28;20020;-29
2021/07/10 03:21:24;;;;;;;0.50;0.50;;;23.40;61.30;;;;;;5068559;28;20367;-29
2021/07/10 03:23:49;;;;;;;0.50;0.50;;;23.40;61.50;;;;;;5069994;28;20047;-29
2021/07/10 03:26:15;;;;;;;0.50;0.50;;;23.30;62.30;;;;;;5070352;28;20060;-34
2021/07/10 03:28:40;;;;;;;0.60;0.60;;;23.20;61.60;;;;;;5066395;28;20035;-29
2021/07/10 03:31:07;;;;;;;0.38;0.38;;;23.30;61.70;;;;;;5064116;28;20094;-30
2021/07/10 03:33:34;;;;;;;0.50;0.50;;;23.40;61.50;;;;;;5067937;28;20037;-32
2021/07/10 03:36:00;;;;;;;0.50;0.50;;;23.20;61.90;;;;;;5074070;28;20036;-33
2021/07/10 03:38:25;;;;;;;0.30;0.30;;;23.40;61.50;;;;;;5066521;28;20028;-28
2021/07/10 03:40:51;;;;;;;0.50;0.50;;;23.30;61.50;;;;;;5065196;28;20032;-32
2021/07/10 03:43:16;;;;;;;1.35;0.40;;;23.30;61.70;;;;;;5065416;28;20029;-29
2021/07/10 03:45:42;;;;;;;0.50;0.50;;;23.30;61.90;;;;;;5071696;28;20032;-33
2021/07/10 03:48:08;;;;;;;0.50;0.50;;;23.20;61.90;;;;;;5067076;28;20123;-29
2021/07/10 03:50:33;;;;;;;0.30;0.30;;;23.40;61.70;;;;;;5063501;28;20484;-34
2021/07/10 03:52:59;;;;;;;0.30;0.30;;;23.30;61.60;;;;;;5063564;28;20039;-34
2021/07/10 03:55:24;;;;;;;0.60;0.60;;;23.30;61.70;;;;;;5067241;28;20127;-31
2021/07/10 03:57:50;;;;;;;0.40;0.40;;;23.40;61.50;;;;;;5064216;28;20025;-28
2021/07/10 04:00:18;;;;;;;0.57;0.57;;;23.40;61.50;;;;;;5066789;28;20904;-29
2021/07/10 04:02:43;;;;;;;0.52;0.52;;;23.30;61.80;;;;;;5065371;28;20037;-27
2021/07/10 04:05:10;;;;;;;0.40;0.40;;;23.20;61.80;;;;;;5069087;28;20024;-27
2021/07/10 04:07:37;;;;;;;0.50;0.50;;;23.30;61.70;;;;;;5063749;28;20486;-26
2021/07/10 04:10:04;;;;;;;0.50;0.50;;;23.30;61.90;;;;;;5069343;28;20394;-28
2021/07/10 04:12:30;;;;;;;0.45;0.45;;;23.30;61.80;;;;;;5065133;28;20032;-28
2021/07/10 04:15:00;;;;;;;0.40;0.40;;;23.30;61.90;;;;;;5065398;28;20036;-26
2021/07/10 04:17:32;;;;;;;0.50;0.50;;;23.30;61.70;;;;;;5058812;28;20161;-26
2021/07/10 04:19:58;;;;;;;0.50;0.50;;;23.40;61.70;;;;;;5063640;28;20028;-27
2021/07/10 04:22:24;;;;;;;0.60;0.60;;;23.30;61.70;;;;;;5063283;28;20405;-29
2021/07/10 04:24:50;;;;;;;0.45;0.45;;;23.20;62.10;;;;;;5068377;28;20035;-32
2021/07/10 04:27:16;;;;;;;0.45;0.45;;;23.20;62.10;;;;;;5066200;28;20097;-30
2021/07/10 04:29:44;;;;;;;0.40;0.40;;;23.20;62.10;;;;;;5060578;28;20481;-30
2021/07/10 04:32:11;;;;;;;0.45;0.45;;;23.20;62.30;;;;;;5061631;28;20055;-27
2021/07/10 04:34:36;;;;;;;0.40;0.40;;;23.20;62.90;;;;;;5063126;28;20090;-34
2021/07/10 04:37:02;;;;;;;0.55;0.55;;;23.20;62.30;;;;;;5064430;28;20108;-26
2021/07/10 04:39:27;;;;;;;0.40;0.40;;;23.10;62.30;;;;;;5066975;28;20039;-32
2021/07/10 04:41:53;;;;;;;0.40;0.40;;;23.10;62.40;;;;;;5063000;28;20021;-29
2021/07/10 04:44:18;;;;;;;0.50;0.50;;;23.10;62.40;;;;;;5061859;28;20089;-26
2021/07/10 04:46:44;;;;;;;0.40;0.40;;;23.10;62.40;;;;;;5071676;28;20037;-27
2021/07/10 04:49:10;;;;;;;0.50;0.50;;;23.30;62.10;;;;;;5067086;28;20031;-33
2021/07/10 04:51:36;;;;;;;1.00;0.47;;;23.30;61.70;;;;;;5062674;28;20025;-29
2021/07/10 04:54:02;;;;;;;0.32;0.32;;;23.20;62.10;;;;;;5065552;28;20469;-25
2021/07/10 04:56:27;;;;;;;1.15;0.43;;;23.30;61.80;;;;;;5071298;28;20031;-28
2021/07/10 04:58:53;;;;;;;0.38;0.38;;;23.30;61.80;;;;;;5060494;28;20602;-29
2021/07/10 05:01:18;;;;;;;0.50;0.50;;;23.30;62.00;;;;;;5065376;28;20020;-28
2021/07/10 05:03:44;;;;;;;0.55;0.55;;;23.30;61.70;;;;;;5062543;28;20574;-32
2021/07/10 05:06:10;;;;;;;0.40;0.40;;;23.30;61.90;;;;;;5055024;28;20106;-25
2021/07/10 05:08:35;;;;;;;0.40;0.40;;;23.20;62.10;;;;;;5065643;28;20078;-32
2021/07/10 05:11:01;;;;;;;0.43;0.43;;;23.20;62.10;;;;;;5069497;28;20111;-29
2021/07/10 05:13:26;;;;;;;0.50;0.50;;;23.20;62.10;;;;;;5063255;28;20041;-28
2021/07/10 05:15:52;;;;;;;0.50;0.50;;;23.20;62.10;;;;;;5067555;28;20017;-33
2021/07/10 05:18:19;;;;;;;0.50;0.50;;;23.30;61.90;;;;;;5067131;28;20052;-29
2021/07/10 05:20:45;;;;;;;0.40;0.40;;;23.20;62.10;;;;;;5065392;28;20536;-29
2021/07/10 05:23:11;;;;;;;0.40;0.40;;;23.20;62.30;;;;;;5063300;28;20123;-27
2021/07/10 05:25:37;;;;;;;0.30;0.30;;;23.10;62.40;;;;;;5063769;28;20095;-39
2021/07/10 05:28:02;;;;;;;0.43;0.43;;;23.20;62.10;;;;;;5061506;28;20036;-30
2021/07/10 05:30:28;;;;;;;0.40;0.40;;;23.20;62.10;;;;;;5065533;28;20035;-29
2021/07/10 05:32:53;;;;;;;0.30;0.30;;;23.10;62.30;;;;;;5065633;28;20568;-29
2021/07/10 05:35:22;;;;;;;0.40;0.40;;;23.10;62.50;;;;;;5068533;28;20036;-28
2021/07/10 05:37:47;;;;;;;0.40;0.40;;;23.10;63.20;;;;;;5062055;28;20020;-25
2021/07/10 05:40:13;;;;;;;0.50;0.50;;;23.20;63.10;;;;;;5064125;28;20025;-30
2021/07/10 05:42:39;;;;;;;0.30;0.30;;;23.20;62.10;;;;;;5064898;28;20025;-27
2021/07/10 05:45:05;;;;;;;0.30;0.30;;;23.20;62.20;;;;;;5066775;28;20029;-27
2021/07/10 05:47:30;;;;;;;0.40;0.40;;;23.10;62.30;;;;;;5044281;28;20681;-33
2021/07/10 05:49:56;;;;;;;0.52;0.52;;;23.20;62.30;;;;;;5067964;28;20032;-31
2021/07/10 05:52:21;;;;;;;0.50;0.50;;;23.20;62.20;;;;;;5060567;28;20446;-28
2021/07/10 05:54:47;;;;;;;0.40;0.40;;;23.10;62.30;;;;;;5065412;28;20025;-26
2021/07/10 05:57:12;;;;;;;0.32;0.32;;;23.20;62.30;;;;;;5069067;28;20412;-31
2021/07/10 05:59:38;;;;;;;0.30;0.30;;;23.20;62.10;;;;;;5061912;28;20028;-33
2021/07/10 06:02:06;;;;;;;0.65;0.40;;;23.20;62.30;;;;;;5062516;28;20032;-30
2021/07/10 06:04:33;;;;;;;0.38;0.38;;;23.20;62.40;;;;;;5048092;28;20442;-27
2021/07/10 06:06:59;;;;;;;0.70;0.38;;;23.20;62.30;;;;;;5063386;28;20391;-26
2021/07/10 06:09:24;;;;;;;0.40;0.40;;;23.30;63.00;;;;;;5065800;28;20031;-29
2021/07/10 06:11:50;;;;;;;0.40;0.40;;;23.10;62.30;;;;;;5065454;28;20086;-33
2021/07/10 06:14:16;;;;;;;0.63;0.43;;;23.10;62.40;;;;;;5061861;28;20048;-25
2021/07/10 06:16:41;;;;;;;0.40;0.40;;;23.10;62.40;;;;;;5041137;28;20035;-32
2021/07/10 06:19:07;;;;;;;0.45;0.45;;;23.20;62.30;;;;;;5066040;28;20238;-27
2021/07/10 06:21:32;;;;;;;0.40;0.40;;;23.10;62.30;;;;;;5067076;28;20047;-25
2021/07/10 06:23:58;;;;;;;0.30;0.30;;;23.20;62.10;;;;;;5044606;28;20039;-27
2021/07/10 06:26:24;;;;;;;0.40;0.40;;;23.20;62.30;;;;;;5065944;28;20020;-28
2021/07/10 06:28:50;;;;;;;0.40;0.40;;;23.10;62.60;;;;;;5057303;28;20025;-30
2021/07/10 06:31:18;;;;;;;0.40;0.40;;;23.10;62.50;;;;;;5063786;28;20029;-27
2021/07/10 06:33:44;;;;;;;0.40;0.40;;;23.10;62.40;;;;;;5063445;28;20517;-25
2021/07/10 06:36:10;;;;;;;0.50;0.50;;;23.10;62.50;;;;;;5061340;28;20035;-27
2021/07/10 06:38:36;;;;;;;0.40;0.40;;;23.10;62.50;;;;;;5063902;28;20029;-27
2021/07/10 06:41:01;;;;;;;0.60;0.60;;;23.20;62.30;;;;;;5059250;28;20079;-28
2021/07/10 06:43:27;;;;;;;0.40;0.40;;;23.10;62.50;;;;;;5046712;28;20028;-26
2021/07/10 06:45:53;;;;;;;1.42;0.50;;;23.10;62.60;;;;;;5067549;28;20029;-31
2021/07/10 06:48:18;;;;;;;0.47;0.47;;;23.00;62.80;;;;;;5066934;28;20532;-27
2021/07/10 06:50:44;;;;;;;0.50;0.50;;;23.00;62.80;;;;;;5065314;28;20024;-27
2021/07/10 06:53:09;;;;;;;0.50;0.50;;;23.00;62.80;;;;;;5068328;28;20036;-27
2021/07/10 06:55:35;;;;;;;0.40;0.40;;;23.10;62.70;;;;;;5065688;28;20147;-32
2021/07/10 06:58:00;;;;;;;0.60;0.60;;;23.00;62.80;;;;;;5065565;28;20025;-28
2021/07/10 07:00:26;;;;;;;0.40;0.40;;;23.00;62.80;;;;;;5065404;28;20090;-27
2021/07/10 07:02:52;;;;;;;0.50;0.50;;;23.00;62.90;;;;;;5064561;28;20021;-29
2021/07/10 07:05:17;;;;;;;0.38;0.38;;;23.10;62.80;;;;;;5060006;28;20052;-29
2021/07/10 07:07:43;;;;;;;0.50;0.50;;;23.10;62.50;;;;;;5066918;28;20025;-29
2021/07/10 07:10:09;;;;;;;0.40;0.40;;;23.20;62.10;;;;;;5064743;28;20551;-27
2021/07/10 07:12:35;;;;;;;0.40;0.40;;;23.30;62.10;;;;;;5048481;28;20705;-32
2021/07/10 07:15:01;;;;;;;0.47;0.47;;;23.20;62.40;;;;;;5067396;28;20020;-28
2021/07/10 07:17:26;;;;;;;0.30;0.30;;;23.20;62.40;;;;;;5063962;28;20043;-32
2021/07/10 07:19:52;;;;;;;0.40;0.40;;;23.20;62.30;;;;;;5059292;28;20024;-29
2021/07/10 07:22:17;;;;;;;0.40;0.40;;;23.20;62.10;;;;;;5059890;28;20596;-28
2021/07/10 07:24:43;;;;;;;0.60;0.60;;;23.30;62.20;;;;;;5060812;28;20033;-25
2021/07/10 07:27:08;;;;;;;0.40;0.40;;;23.30;62.00;;;;;;5060561;28;20036;-30
2021/07/10 07:29:36;;;;;;;0.50;0.50;;;23.30;62.20;;;;;;5058515;28;20043;-27
2021/07/10 07:32:02;;;;;;;0.40;0.40;;;23.10;62.80;;;;;;5059393;28;20459;-33
2021/07/10 07:34:28;;;;;;;0.40;0.40;;;23.10;62.80;;;;;;5058095;28;20044;-27
2021/07/10 07:36:53;;;;;;;0.55;0.55;;;23.20;62.60;;;;;;5059088;28;20478;-27
2021/07/10 07:39:19;;;;;;;0.43;0.40;;;23.10;62.70;;;;;;5060185;28;20029;-28
2021/07/10 07:41:45;;;;;;;0.40;0.40;;;23.10;62.70;;;;;;5057141;28;20032;-31
2021/07/10 07:44:10;;;;;;;0.35;0.35;;;23.30;62.40;;;;;;5057158;28;20039;-32
2021/07/10 07:46:36;;;;;;;0.40;0.40;;;23.30;62.50;;;;;;5038941;28;20025;-31
2021/07/10 07:49:02;;;;;;;1.38;0.60;;;23.30;62.50;;;;;;5056408;28;20021;-27
2021/07/10 07:51:28;;;;;;;0.45;0.45;;;23.20;62.60;;;;;;5045681;28;20953;-34
2021/07/10 07:53:53;;;;;;;0.52;0.50;;;23.30;62.30;;;;;;5063680;28;20029;-29
2021/07/10 07:56:19;;;;;;;0.40;0.40;;;23.30;62.10;;;;;;5060511;28;20028;-29
2021/07/10 07:58:44;;;;;;;0.40;0.40;;;23.40;62.10;;;;;;5058780;28;20098;-27
2021/07/10 08:01:10;;;;;;;0.50;0.50;;;23.40;62.20;;;;;;5060991;28;20029;-30
2021/07/10 08:03:36;;;;;;;0.55;0.55;;;23.40;62.10;;;;;;5062929;28;20043;-27
2021/07/10 08:06:02;;;;;;;0.40;0.40;;;23.30;62.10;;;;;;5070931;28;20111;-29
2021/07/10 08:08:28;;;;;;;0.40;0.40;;;23.30;62.50;;;;;;5063221;28;20082;-32
2021/07/10 08:10:54;;;;;;;0.70;0.60;;;23.30;62.70;;;;;;5065209;28;20045;-28
2021/07/10 08:13:19;;;;;;;0.40;0.40;;;23.20;62.60;;;;;;5067651;28;20029;-33
2021/07/10 08:15:45;;;;;;;0.35;0.35;;;23.00;63.20;;;;;;5068712;28;20389;-31
2021/07/10 08:18:10;;;;;;;0.40;0.40;;;22.90;63.60;;;;;;5079454;28;20107;-29
2021/07/10 08:20:37;;;;;;;0.60;0.60;;;22.90;63.80;;;;;;5062389;28;20046;-27
2021/07/10 08:23:09;;;;;;;0.80;0.80;;;22.80;64.00;;;;;;5060201;28;20029;-34
2021/07/10 08:25:35;;;;;;;0.88;0.65;;;22.80;63.90;;;;;;5070792;28;20132;-31
2021/07/10 08:28:01;;;;;;;0.80;0.80;;;22.80;63.90;;;;;;5067684;28;20091;-32
2021/07/10 08:30:27;;;;;;;1.48;0.80;;;22.70;63.80;;;;;;5065962;28;20066;-37
2021/07/10 08:32:53;;;;;;;0.68;0.68;;;22.70;63.80;;;;;;5073962;28;20562;-32
2021/07/10 08:35:19;;;;;;;0.60;0.60;;;22.70;63.70;;;;;;5065801;28;20038;-29
2021/07/10 08:37:45;;;;;;;0.65;0.63;;;22.70;64.20;;;;;;5061477;28;20017;-30
2021/07/10 08:40:11;;;;;;;0.52;0.52;;;22.80;63.60;;;;;;5067782;28;20031;-31
2021/07/10 08:42:37;;;;;;;0.60;0.60;;;22.80;63.60;;;;;;5062035;28;20507;-30
2021/07/10 08:45:05;;;;;;;0.90;0.60;;;22.80;63.70;;;;;;5072450;28;20123;-33
2021/07/10 08:47:34;;;;;;;0.60;0.60;;;22.80;63.90;;;;;;5063313;28;20032;-34
2021/07/10 08:49:59;;;;;;;0.60;0.60;;;22.80;63.70;;;;;;5058170;28;20021;-31
2021/07/10 08:52:25;;;;;;;0.80;0.80;;;22.80;63.60;;;;;;5041246;28;20515;-33
2021/07/10 08:54:50;;;;;;;0.73;0.60;;;22.70;64.00;;;;;;4691872;28;9999910;-33
2021/07/10 08:57:18;;;;;;;0.68;0.68;;;22.70;64.10;;;;;;5050463;28;20150;-35
2021/07/10 08:59:43;;;;;;;0.75;0.65;;;22.70;64.10;;;;;;5062463;28;20382;-28
2021/07/10 09:02:09;;;;;;;0.50;0.50;;;22.70;64.30;;;;;;5060344;28;20031;-27
2021/07/10 09:04:35;;;;;;;0.60;0.60;;;22.70;64.40;;;;;;5055031;28;20033;-33
2021/07/10 09:07:00;;;;;;;0.65;0.65;;;22.70;64.60;;;;;;5060080;28;20024;-28
2021/07/10 09:09:46;;;;;;;0.45;0.40;;;22.70;65.00;;;;;;5061877;28;20064;-31
2021/07/10 09:12:14;;;;;;;0.60;0.60;;;22.80;64.50;;;;;;5065813;28;20119;-29
2021/07/10 09:14:41;;;;;;;0.70;0.70;;;22.90;64.30;;;;;;5059238;28;20044;-32
2021/07/10 09:17:20;;;;;;;0.40;0.40;;;22.90;64.20;;;;;;5054867;28;20024;-31
2021/07/10 09:19:46;;;;;;;0.52;0.52;;;22.90;65.00;;;;;;5054501;28;20592;-29
2021/07/10 09:22:22;;;;;;;0.70;0.70;;;22.90;65.60;;;;;;5055498;28;20036;-32
2021/07/10 09:24:49;;;;;;;1.27;0.50;;;22.90;65.70;;;;;;5038082;28;20032;-26
2021/07/10 09:27:15;;;;;;;0.65;0.60;;;22.90;65.70;;;;;;5034949;28;20477;-25
2021/07/10 09:29:43;;;;;;;0.60;0.60;;;22.90;65.70;;;;;;5056215;28;20028;-29
2021/07/10 09:32:14;;;;;;;0.70;0.70;;;22.90;65.40;;;;;;5033193;28;20037;-29
2021/07/10 09:34:48;;;;;;;2.25;0.80;;;23.00;65.50;;;;;;5054446;28;20028;-28
2021/07/10 09:37:24;;;;;;;1.85;0.60;;;23.00;65.40;;;;;;5064218;28;21878;-31
2021/07/10 09:39:57;;;;;;;0.88;0.55;;;23.00;65.40;;;;;;5060586;28;20115;-28
2021/07/10 09:42:25;;;;;;;0.60;0.60;;;23.00;65.40;;;;;;5060031;28;20063;-33
2021/07/10 09:44:51;;;;;;;0.40;0.40;;;23.00;65.50;;;;;;5059607;28;20047;-34
2021/07/10 09:47:25;;;;;;;0.60;0.60;;;23.00;65.50;;;;;;5064063;28;20028;-32
2021/07/10 09:49:51;;;;;;;;;;;22.90;65.80;;;;;;5042671;28;20033;-29
2021/07/10 09:52:18;;;;;;;0.73;0.50;;;22.90;65.70;;;;;;5052278;28;20364;-27
2021/07/10 09:54:54;;;;;;;0.50;0.50;;;23.10;65.20;;;;;;5024503;28;20040;-31
2021/07/10 09:57:22;;;;;;;2.50;0.60;;;23.10;65.30;;;;;;5061939;28;20048;-31
2021/07/10 09:59:55;;;;;;;0.40;0.40;;;23.00;65.20;;;;;;5061384;28;20032;-32
2021/07/10 10:02:30;;;;;;;0.40;0.40;;;23.00;65.40;;;;;;5058108;28;20103;-34
2021/07/10 10:05:04;;;;;;;0.40;0.40;;;23.00;65.10;;;;;;5060913;28;20067;-31
2021/07/10 10:07:44;;;;;;;0.40;0.40;;;23.00;65.10;;;;;;5058097;28;20037;-33
2021/07/10 10:10:27;;;;;;;0.68;0.68;;;23.00;65.00;;;;;;5039685;28;20047;-36
2021/07/10 10:13:07;;;;;;;0.50;0.50;;;23.10;65.60;;;;;;5048891;28;20060;-42
2021/07/10 10:15:43;;;;;;;0.73;0.60;;;23.10;64.50;;;;;;5065064;28;20029;-35
2021/07/10 10:18:09;;;;;;;0.75;0.70;;;23.30;64.40;;;;;;5063815;28;20020;-32
2021/07/10 10:20:35;;;;;;;0.68;0.63;;;23.30;64.40;;;;;;5057895;28;20047;-35
2021/07/10 10:23:01;;;;;;;0.93;0.60;;;23.30;64.70;;;;;;5042909;28;20489;-37
2021/07/10 10:25:27;;;;;;;1.23;0.90;;;23.20;64.90;;;;;;5060376;28;20408;-36
2021/07/10 10:27:53;;;;;;;0.80;0.80;;;23.20;65.50;;;;;;5046564;28;20020;-29
2021/07/10 10:30:19;;;;;;;0.82;0.73;;;23.10;66.60;;;;;;5044111;28;20043;-35
2021/07/10 10:32:45;;;;;;;0.73;0.70;;;23.10;66.30;;;;;;5056398;28;20040;-30
2021/07/10 10:35:11;;;;;;;0.65;0.65;;;23.10;66.30;;;;;;5072765;28;20089;-29
2021/07/10 10:37:38;;;;;;;0.73;0.70;;;23.10;66.60;;;;;;5064283;28;20033;-32
2021/07/10 10:40:08;;;;;;;0.63;0.63;;;23.10;67.00;;;;;;5062615;28;20123;-37
2021/07/10 10:42:33;;;;;;;6.13;0.60;;;23.10;67.00;;;;;;5060176;28;20056;-35
2021/07/10 10:45:02;;;;;;;1.48;0.60;;;23.10;66.90;;;;;;5024309;28;20512;-33
2021/07/10 10:47:41;;;;;;;1.10;0.95;;;23.10;66.70;;;;;;5044233;28;21314;-36
2021/07/10 10:50:34;;;;;;;0.73;0.60;;;23.20;66.70;;;;;;5060017;28;20473;-36
2021/07/10 10:52:59;;;;;;;1.65;0.70;;;23.30;67.40;;;;;;5060869;28;20071;-34
2021/07/10 10:55:28;;;;;;;0.80;0.75;;;23.20;66.90;;;;;;5025036;28;20100;-30
2021/07/10 10:58:15;;;;;;;0.90;0.85;;;23.20;66.70;;;;;;5056202;28;20448;-35
2021/07/10 11:00:42;;;;;;;0.77;0.47;;;23.30;66.80;;;;;;5062069;28;20112;-31
2021/07/10 11:03:11;;;;;;;0.80;0.80;;;23.20;66.80;;;;;;5065318;28;20067;-33
2021/07/10 11:05:56;;;;;;;0.60;0.60;;;23.20;66.60;;;;;;5047700;28;20108;-29
2021/07/10 11:08:22;;;;;;;0.80;0.80;;;23.20;67.30;;;;;;5063556;28;20874;-34
2021/07/10 11:11:10;;;;;;;0.50;0.50;;;23.20;66.80;;;;;;5062753;28;20048;-30
2021/07/10 11:13:59;;;;;;;1.10;0.70;;;23.10;66.90;;;;;;5063085;28;20037;-34
2021/07/10 11:16:25;;;;;;;1.13;0.73;;;23.00;67.20;;;;;;5060486;28;20570;-35
2021/07/10 11:18:58;;;;;;;0.50;0.40;;;23.00;67.50;;;;;;5063018;28;20133;-30
2021/07/10 11:21:34;;;;;;;0.95;0.75;;;22.90;68.10;;;;;;5066067;28;20032;-33
2021/07/10 11:26:47;;;;;;;4.47;0.70;;;22.90;68.50;;;;;;5069381;28;20044;-33
2021/07/10 11:29:22;;;;;;;0.60;0.60;;;22.90;68.30;;;;;;5054926;28;20048;-32
2021/07/10 11:31:47;;;;;;;1.00;0.73;;;23.00;68.00;;;;;;5067299;28;20514;-30
2021/07/10 11:34:15;;;;;;;1.58;0.50;;;23.10;67.50;;;;;;5068735;28;20032;-30
2021/07/10 11:36:49;;;;;;;0.65;0.65;;;23.20;66.90;;;;;;5068091;28;20037;-31
2021/07/10 11:39:24;;;;;;;;;;;23.20;67.60;;;;;;5066481;28;20032;-33
2021/07/10 11:41:53;;;;;;;0.82;0.40;;;23.40;67.40;;;;;;5070349;28;19962;-32
2021/07/10 11:44:21;;;;;;;1.15;0.68;;;23.30;66.80;;;;;;5071986;28;20120;-28
2021/07/10 11:46:56;;;;;;;0.52;0.40;;;23.40;67.70;;;;;;5063550;28;20550;-33
2021/07/10 11:49:39;;;;;;;0.50;0.50;;;23.30;67.80;;;;;;5061874;28;20025;-31
2021/07/10 11:52:05;;;;;;;2.78;0.93;;;23.30;67.90;;;;;;5065082;28;20029;-32
2021/07/10 11:54:32;;;;;;;0.55;0.55;;;23.40;67.60;;;;;;5064190;28;20044;-30
2021/07/10 11:56:58;;;;;;;1.65;0.50;;;23.30;68.00;;;;;;5070019;28;20622;-31
2021/07/10 11:59:23;;;;;;;0.60;0.60;;;23.40;68.00;;;;;;5047304;28;20112;-30
2021/07/10 12:01:49;;;;;;;0.57;0.55;;;23.30;67.80;;;;;;5044118;28;20032;-32
2021/07/10 12:04:15;;;;;;;0.85;0.60;;;23.30;68.10;;;;;;5062672;28;20027;-29
2021/07/10 12:06:40;;;;;;;0.90;0.60;;;23.30;67.90;;;;;;5048349;28;20039;-31
2021/07/10 12:09:06;;;;;;;2.00;0.65;;;23.40;67.90;;;;;;5064294;28;20032;-32
2021/07/10 12:11:32;;;;;;;1.13;0.60;;;23.40;68.00;;;;;;5069839;28;20049;-29
2021/07/10 12:14:08;;;;;;;2.10;0.70;;;23.40;67.80;;;;;;5064470;28;20451;-30
2021/07/10 12:16:34;;;;;;;0.50;0.50;;;23.40;67.80;;;;;;5070833;28;20024;-33
2021/07/10 12:18:59;;;;;;;0.43;0.40;;;23.40;67.70;;;;;;5060294;28;20149;-33
2021/07/10 12:21:25;;;;;;;0.80;0.65;;;23.40;67.50;;;;;;5059665;28;20086;-34
2021/07/10 12:23:55;;;;;;;4.57;0.52;;;23.40;67.70;;;;;;5063654;28;20020;-33
2021/07/10 12:26:21;;;;;;;0.40;0.40;;;23.50;67.30;;;;;;5063389;28;20036;-32
2021/07/10 12:28:57;;;;;;;1.35;0.70;;;23.50;67.30;;;;;;5061272;28;20047;-36
2021/07/10 12:31:49;;;;;;;0.85;0.85;;;23.50;67.40;;;;;;5059559;28;20162;-30
2021/07/10 12:34:18;;;;;;;0.95;0.50;;;23.60;66.40;;;;;;4705331;28;10000385;-31
2021/07/10 12:36:44;;;;;;;0.60;0.60;;;23.50;67.10;;;;;;5059937;28;20035;-35
2021/07/10 12:39:23;;;;;;;0.70;0.57;;;23.50;67.20;;;;;;5045846;28;20031;-29
2021/07/10 12:41:55;;;;;;;1.00;0.60;;;23.50;67.50;;;;;;5063968;28;20032;-28
2021/07/10 12:44:23;;;;;;;0.40;0.40;;;23.60;66.80;;;;;;5063035;28;20074;-31
2021/07/10 12:46:54;;;;;;;0.60;0.60;;;23.50;66.70;;;;;;5061829;28;20029;-32
2021/07/10 12:49:21;;;;;;;0.60;0.50;;;23.50;67.10;;;;;;5061761;28;20038;-31
2021/07/10 12:51:48;;;;;;;1.58;0.50;;;23.60;66.80;;;;;;5063641;28;20556;-32